Back to Top

Language: 

My Weather Underground Personal Weather Station Historical Data with Graphs...

Delerius Weather Station Historical Data
Daily Summary for April 14, 2017 Units:  Both    English   Metric
« Previous Day
Next Day »
Daily Weekly Monthly Yearly Custom
  High: Low: Average:
Temperature: 57.4 °F /  14.1 °C 45.1 °F /  7.3 °C 50 °F /  10 °C
Dew Point: 49.3 °F /  9.6 °C 39.7 °F /  4.3 °C 44.3 °F /  6.8 °C
Humidity: 90 % 66 % 81 %
Wind Speed: 18.0 mph /  29 km/h - 7.7 mph /  12.4 km/h
Wind Gust: 31.0 mph /  49.9 km/h - -
Wind:- - West
Pressure: 30.01 in /  1016.1 hPa 29.86 in /  1011.1 hPa -
Precipitation: 0.01 in /  0.25 mm    
Historical Graphs
 
 
Tabular Data for April 14, 2017
Time Temperature Dew Point Pressure Wind Wind Speed Wind Gust Humidity Rainfall Rate (Hourly) solar Conditions
00:02 46.8 °F /  8.2 °C 40.6 °F /  4.8 °C 30.01 in /  1016.1 hPa West 6.0 mph /  9.7 km/h 11.0 mph /  17.7 km/h 79 % 0.00 in /  0 mm 0 W/m2
00:07 46.8 °F /  8.2 °C 40.6 °F /  4.8 °C 30.01 in /  1016.1 hPa West 6.0 mph /  9.7 km/h 9.0 mph /  14.5 km/h 79 % 0.00 in /  0 mm 0 W/m2
00:12 46.8 °F /  8.2 °C 40.6 °F /  4.8 °C 30.01 in /  1016.1 hPa West 6.0 mph /  9.7 km/h 9.0 mph /  14.5 km/h 79 % 0.00 in /  0 mm 0 W/m2
00:17 46.8 °F /  8.2 °C 40.6 °F /  4.8 °C 30.01 in /  1016.1 hPa West 6.0 mph /  9.7 km/h 11.0 mph /  17.7 km/h 79 % 0.00 in /  0 mm 0 W/m2
00:22 46.8 °F /  8.2 °C 40.6 °F /  4.8 °C 30.01 in /  1016.1 hPa West 6.0 mph /  9.7 km/h 11.0 mph /  17.7 km/h 79 % 0.00 in /  0 mm 0 W/m2
00:27 46.8 °F /  8.2 °C 40.6 °F /  4.8 °C 30.01 in /  1016.1 hPa West 4.0 mph /  6.4 km/h 9.0 mph /  14.5 km/h 79 % 0.00 in /  0 mm 0 W/m2
00:32 46.8 °F /  8.2 °C 40.6 °F /  4.8 °C 30.01 in /  1016.1 hPa West 3.0 mph /  4.8 km/h 9.0 mph /  14.5 km/h 79 % 0.00 in /  0 mm 0 W/m2
00:37 46.8 °F /  8.2 °C 40.9 °F /  4.9 °C 30.01 in /  1016.1 hPa West 3.0 mph /  4.8 km/h 7.0 mph /  11.3 km/h 80 % 0.00 in /  0 mm 0 W/m2
00:42 46.8 °F /  8.2 °C 40.9 °F /  4.9 °C 30.01 in /  1016.1 hPa WNW 3.0 mph /  4.8 km/h 8.0 mph /  12.9 km/h 80 % 0.00 in /  0 mm 0 W/m2
00:47 46.8 °F /  8.2 °C 40.6 °F /  4.8 °C 30.01 in /  1016.1 hPa WNW 4.0 mph /  6.4 km/h 8.0 mph /  12.9 km/h 79 % 0.00 in /  0 mm 0 W/m2
00:52 46.8 °F /  8.2 °C 40.9 °F /  4.9 °C 30.01 in /  1016.1 hPa West 3.0 mph /  4.8 km/h 7.0 mph /  11.3 km/h 80 % 0.00 in /  0 mm 0 W/m2
01:02 46.8 °F /  8.2 °C 40.6 °F /  4.8 °C 30.00 in /  1015.8 hPa West 2.0 mph /  3.2 km/h 7.0 mph /  11.3 km/h 79 % 0.00 in /  0 mm 0 W/m2
01:07 46.8 °F /  8.2 °C 40.6 °F /  4.8 °C 30.00 in /  1015.8 hPa West 3.0 mph /  4.8 km/h 8.0 mph /  12.9 km/h 79 % 0.00 in /  0 mm 0 W/m2
01:12 46.8 °F /  8.2 °C 40.6 °F /  4.8 °C 30.00 in /  1015.8 hPa West 3.0 mph /  4.8 km/h 8.0 mph /  12.9 km/h 79 % 0.00 in /  0 mm 0 W/m2
01:17 46.8 °F /  8.2 °C 40.9 °F /  4.9 °C 30.00 in /  1015.8 hPa West 2.0 mph /  3.2 km/h 6.0 mph /  9.7 km/h 80 % 0.00 in /  0 mm 0 W/m2
01:22 46.8 °F /  8.2 °C 40.9 °F /  4.9 °C 30.00 in /  1015.8 hPa West 2.0 mph /  3.2 km/h 9.0 mph /  14.5 km/h 80 % 0.00 in /  0 mm 0 W/m2
01:27 46.8 °F /  8.2 °C 40.6 °F /  4.8 °C 29.99 in /  1015.5 hPa West 3.0 mph /  4.8 km/h 9.0 mph /  14.5 km/h 79 % 0.00 in /  0 mm 0 W/m2
01:32 46.8 °F /  8.2 °C 40.6 °F /  4.8 °C 29.99 in /  1015.5 hPa West 3.0 mph /  4.8 km/h 8.0 mph /  12.9 km/h 79 % 0.00 in /  0 mm 0 W/m2
01:37 46.8 °F /  8.2 °C 40.9 °F /  4.9 °C 29.99 in /  1015.5 hPa West 3.0 mph /  4.8 km/h 7.0 mph /  11.3 km/h 80 % 0.00 in /  0 mm 0 W/m2
01:43 46.6 °F /  8.1 °C 40.7 °F /  4.8 °C 29.99 in /  1015.5 hPa West 3.0 mph /  4.8 km/h 6.0 mph /  9.7 km/h 80 % 0.00 in /  0 mm 0 W/m2
01:53 46.6 °F /  8.1 °C 40.7 °F /  4.8 °C 29.99 in /  1015.5 hPa West 3.0 mph /  4.8 km/h 6.0 mph /  9.7 km/h 80 % 0.00 in /  0 mm 0 W/m2
01:58 46.6 °F /  8.1 °C 40.7 °F /  4.8 °C 29.99 in /  1015.5 hPa West 3.0 mph /  4.8 km/h 6.0 mph /  9.7 km/h 80 % 0.00 in /  0 mm 0 W/m2
02:03 46.6 °F /  8.1 °C 40.7 °F /  4.8 °C 29.99 in /  1015.5 hPa West 2.0 mph /  3.2 km/h 6.0 mph /  9.7 km/h 80 % 0.00 in /  0 mm 0 W/m2
02:08 46.4 °F /  8 °C 40.6 °F /  4.8 °C 29.98 in /  1015.1 hPa West 3.0 mph /  4.8 km/h 6.0 mph /  9.7 km/h 80 % 0.00 in /  0 mm 0 W/m2
02:13 46.2 °F /  7.9 °C 40.4 °F /  4.7 °C 29.98 in /  1015.1 hPa West 3.0 mph /  4.8 km/h 6.0 mph /  9.7 km/h 80 % 0.00 in /  0 mm 0 W/m2
02:18 46.2 °F /  7.9 °C 40.1 °F /  4.5 °C 29.98 in /  1015.1 hPa West 4.0 mph /  6.4 km/h 8.0 mph /  12.9 km/h 79 % 0.00 in /  0 mm 0 W/m2
02:23 46.0 °F /  7.8 °C 39.9 °F /  4.4 °C 29.98 in /  1015.1 hPa West 4.0 mph /  6.4 km/h 8.0 mph /  12.9 km/h 79 % 0.00 in /  0 mm 0 W/m2
02:28 46.0 °F /  7.8 °C 39.9 °F /  4.4 °C 29.98 in /  1015.1 hPa West 3.0 mph /  4.8 km/h 7.0 mph /  11.3 km/h 79 % 0.00 in /  0 mm 0 W/m2
02:33 46.0 °F /  7.8 °C 40.2 °F /  4.6 °C 29.98 in /  1015.1 hPa West 2.0 mph /  3.2 km/h 7.0 mph /  11.3 km/h 80 % 0.00 in /  0 mm 0 W/m2
02:38 45.9 °F /  7.7 °C 40.0 °F /  4.4 °C 29.97 in /  1014.8 hPa WNW 1.0 mph /  1.6 km/h 7.0 mph /  11.3 km/h 80 % 0.00 in /  0 mm 0 W/m2
02:43 45.9 °F /  7.7 °C 40.0 °F /  4.4 °C 29.97 in /  1014.8 hPa NW 1.0 mph /  1.6 km/h 5.0 mph /  8 km/h 80 % 0.00 in /  0 mm 0 W/m2
02:48 45.9 °F /  7.7 °C 40.0 °F /  4.4 °C 29.97 in /  1014.8 hPa WNW 2.0 mph /  3.2 km/h 7.0 mph /  11.3 km/h 80 % 0.00 in /  0 mm 0 W/m2
02:53 45.9 °F /  7.7 °C 40.0 °F /  4.4 °C 29.97 in /  1014.8 hPa West 2.0 mph /  3.2 km/h 8.0 mph /  12.9 km/h 80 % 0.00 in /  0 mm 0 W/m2
02:58 45.9 °F /  7.7 °C 40.0 °F /  4.4 °C 29.97 in /  1014.8 hPa West 1.0 mph /  1.6 km/h 8.0 mph /  12.9 km/h 80 % 0.00 in /  0 mm 0 W/m2
03:03 45.9 °F /  7.7 °C 40.0 °F /  4.4 °C 29.97 in /  1014.8 hPa WNW 2.0 mph /  3.2 km/h 6.0 mph /  9.7 km/h 80 % 0.00 in /  0 mm 0 W/m2
03:08 46.0 °F /  7.8 °C 40.2 °F /  4.6 °C 29.97 in /  1014.8 hPa WNW 4.0 mph /  6.4 km/h 7.0 mph /  11.3 km/h 80 % 0.00 in /  0 mm 0 W/m2
03:13 46.0 °F /  7.8 °C 40.2 °F /  4.6 °C 29.97 in /  1014.8 hPa West 5.0 mph /  8 km/h 10.0 mph /  16.1 km/h 80 % 0.00 in /  0 mm 0 W/m2
03:18 46.0 °F /  7.8 °C 40.2 °F /  4.6 °C 29.97 in /  1014.8 hPa West 6.0 mph /  9.7 km/h 13.0 mph /  20.9 km/h 80 % 0.00 in /  0 mm 0 W/m2
03:23 46.0 °F /  7.8 °C 40.2 °F /  4.6 °C 29.97 in /  1014.8 hPa West 7.0 mph /  11.3 km/h 13.0 mph /  20.9 km/h 80 % 0.00 in /  0 mm 0 W/m2
03:25 46.0 °F /  7.8 °C 40.2 °F /  4.6 °C 29.97 in /  1014.8 hPa WNW 7.0 mph /  11.3 km/h 13.0 mph /  20.9 km/h 80 % 0.00 in /  0 mm 0 W/m2
03:30 45.9 °F /  7.7 °C 40.0 °F /  4.4 °C 29.97 in /  1014.8 hPa WNW 8.0 mph /  12.9 km/h 14.0 mph /  22.5 km/h 80 % 0.00 in /  0 mm 0 W/m2
03:35 45.9 °F /  7.7 °C 40.0 °F /  4.4 °C 29.97 in /  1014.8 hPa WNW 8.0 mph /  12.9 km/h 14.0 mph /  22.5 km/h 80 % 0.00 in /  0 mm 0 W/m2
03:40 45.7 °F /  7.6 °C 39.9 °F /  4.4 °C 29.97 in /  1014.8 hPa WNW 8.0 mph /  12.9 km/h 14.0 mph /  22.5 km/h 80 % 0.00 in /  0 mm 0 W/m2
03:46 45.7 °F /  7.6 °C 39.9 °F /  4.4 °C 29.97 in /  1014.8 hPa WNW 7.0 mph /  11.3 km/h 14.0 mph /  22.5 km/h 80 % 0.00 in /  0 mm 0 W/m2
03:51 45.5 °F /  7.5 °C 40.0 °F /  4.4 °C 29.97 in /  1014.8 hPa WNW 6.0 mph /  9.7 km/h 11.0 mph /  17.7 km/h 81 % 0.00 in /  0 mm 0 W/m2
03:56 45.3 °F /  7.4 °C 39.8 °F /  4.3 °C 29.97 in /  1014.8 hPa WNW 6.0 mph /  9.7 km/h 10.0 mph /  16.1 km/h 81 % 0.00 in /  0 mm 0 W/m2
03:58 45.3 °F /  7.4 °C 39.8 °F /  4.3 °C 29.97 in /  1014.8 hPa WNW 6.0 mph /  9.7 km/h 10.0 mph /  16.1 km/h 81 % 0.00 in /  0 mm 0 W/m2
04:03 45.3 °F /  7.4 °C 39.8 °F /  4.3 °C 29.97 in /  1014.8 hPa West 4.0 mph /  6.4 km/h 10.0 mph /  16.1 km/h 81 % 0.00 in /  0 mm 0 W/m2
04:08 45.3 °F /  7.4 °C 39.8 °F /  4.3 °C 29.97 in /  1014.8 hPa West 2.0 mph /  3.2 km/h 5.0 mph /  8 km/h 81 % 0.00 in /  0 mm 0 W/m2
04:13 45.1 °F /  7.3 °C 39.7 °F /  4.3 °C 29.97 in /  1014.8 hPa WNW 1.0 mph /  1.6 km/h 5.0 mph /  8 km/h 81 % 0.00 in /  0 mm 0 W/m2
04:18 45.1 °F /  7.3 °C 40.0 °F /  4.4 °C 29.97 in /  1014.8 hPa WNW 1.0 mph /  1.6 km/h 5.0 mph /  8 km/h 82 % 0.00 in /  0 mm 0 W/m2
04:23 45.1 °F /  7.3 °C 40.0 °F /  4.4 °C 29.97 in /  1014.8 hPa WNW 1.0 mph /  1.6 km/h 5.0 mph /  8 km/h 82 % 0.00 in /  0 mm 0 W/m2
04:28 45.1 °F /  7.3 °C 40.0 °F /  4.4 °C 29.97 in /  1014.8 hPa West 2.0 mph /  3.2 km/h 5.0 mph /  8 km/h 82 % 0.00 in /  0 mm 0 W/m2
04:33 45.1 °F /  7.3 °C 40.0 °F /  4.4 °C 29.97 in /  1014.8 hPa West 1.0 mph /  1.6 km/h 5.0 mph /  8 km/h 82 % 0.00 in /  0 mm 0 W/m2
04:38 45.1 °F /  7.3 °C 40.0 °F /  4.4 °C 29.97 in /  1014.8 hPa Calm   2.0 mph /  3.2 km/h 82 % 0.00 in /  0 mm 0 W/m2
04:43 45.1 °F /  7.3 °C 40.0 °F /  4.4 °C 29.96 in /  1014.4 hPa Calm   1.0 mph /  1.6 km/h 82 % 0.00 in /  0 mm 0 W/m2
04:48 45.1 °F /  7.3 °C 40.0 °F /  4.4 °C 29.96 in /  1014.4 hPa Calm   2.0 mph /  3.2 km/h 82 % 0.00 in /  0 mm 0 W/m2
04:53 45.1 °F /  7.3 °C 40.3 °F /  4.6 °C 29.96 in /  1014.4 hPa West 1.0 mph /  1.6 km/h 5.0 mph /  8 km/h 83 % 0.00 in /  0 mm 0 W/m2
04:58 45.3 °F /  7.4 °C 40.5 °F /  4.7 °C 29.96 in /  1014.4 hPa West 2.0 mph /  3.2 km/h 6.0 mph /  9.7 km/h 83 % 0.00 in /  0 mm 0 W/m2
05:03 45.3 °F /  7.4 °C 40.5 °F /  4.7 °C 29.96 in /  1014.4 hPa WNW 2.0 mph /  3.2 km/h 6.0 mph /  9.7 km/h 83 % 0.00 in /  0 mm 0 W/m2
05:08 45.3 °F /  7.4 °C 40.5 °F /  4.7 °C 29.96 in /  1014.4 hPa West 1.0 mph /  1.6 km/h 5.0 mph /  8 km/h 83 % 0.00 in /  0 mm 0 W/m2
05:13 45.5 °F /  7.5 °C 40.6 °F /  4.8 °C 29.96 in /  1014.4 hPa West 2.0 mph /  3.2 km/h 5.0 mph /  8 km/h 83 % 0.00 in /  0 mm 0 W/m2
05:18 45.5 °F /  7.5 °C 40.6 °F /  4.8 °C 29.96 in /  1014.4 hPa West 1.0 mph /  1.6 km/h 5.0 mph /  8 km/h 83 % 0.00 in /  0 mm 0 W/m2
05:23 45.5 °F /  7.5 °C 40.6 °F /  4.8 °C 29.96 in /  1014.4 hPa West 1.0 mph /  1.6 km/h 4.0 mph /  6.4 km/h 83 % 0.00 in /  0 mm 0 W/m2
05:28 45.5 °F /  7.5 °C 40.6 °F /  4.8 °C 29.96 in /  1014.4 hPa West 1.0 mph /  1.6 km/h 7.0 mph /  11.3 km/h 83 % 0.00 in /  0 mm 0 W/m2
05:33 45.5 °F /  7.5 °C 40.6 °F /  4.8 °C 29.96 in /  1014.4 hPa WNW 3.0 mph /  4.8 km/h 7.0 mph /  11.3 km/h 83 % 0.00 in /  0 mm 0 W/m2
05:38 45.7 °F /  7.6 °C 40.8 °F /  4.9 °C 29.95 in /  1014.1 hPa WNW 4.0 mph /  6.4 km/h 7.0 mph /  11.3 km/h 83 % 0.00 in /  0 mm 0 W/m2
05:43 45.7 °F /  7.6 °C 40.8 °F /  4.9 °C 29.95 in /  1014.1 hPa WNW 3.0 mph /  4.8 km/h 7.0 mph /  11.3 km/h 83 % 0.00 in /  0 mm 0 W/m2
05:44 45.7 °F /  7.6 °C 40.8 °F /  4.9 °C 29.95 in /  1014.1 hPa WNW 3.0 mph /  4.8 km/h 7.0 mph /  11.3 km/h 83 % 0.00 in /  0 mm 0 W/m2
05:49 45.7 °F /  7.6 °C 40.8 °F /  4.9 °C 29.95 in /  1014.1 hPa WNW 3.0 mph /  4.8 km/h 7.0 mph /  11.3 km/h 83 % 0.00 in /  0 mm 0 W/m2
05:54 45.5 °F /  7.5 °C 40.6 °F /  4.8 °C 29.95 in /  1014.1 hPa WNW 3.0 mph /  4.8 km/h 7.0 mph /  11.3 km/h 83 % 0.00 in /  0 mm 0 W/m2
05:59 45.3 °F /  7.4 °C 40.5 °F /  4.7 °C 29.95 in /  1014.1 hPa WNW 3.0 mph /  4.8 km/h 7.0 mph /  11.3 km/h 83 % 0.00 in /  0 mm 0 W/m2
06:04 45.3 °F /  7.4 °C 40.8 °F /  4.9 °C 29.95 in /  1014.1 hPa WNW 3.0 mph /  4.8 km/h 7.0 mph /  11.3 km/h 84 % 0.00 in /  0 mm 0 W/m2
06:09 45.1 °F /  7.3 °C 40.6 °F /  4.8 °C 29.95 in /  1014.1 hPa WNW 4.0 mph /  6.4 km/h 7.0 mph /  11.3 km/h 84 % 0.00 in /  0 mm 7 W/m2
06:14 45.1 °F /  7.3 °C 40.6 °F /  4.8 °C 29.95 in /  1014.1 hPa NW 4.0 mph /  6.4 km/h 7.0 mph /  11.3 km/h 84 % 0.00 in /  0 mm 7 W/m2
06:19 45.1 °F /  7.3 °C 40.9 °F /  4.9 °C 29.96 in /  1014.4 hPa NW 2.0 mph /  3.2 km/h 6.0 mph /  9.7 km/h 85 % 0.00 in /  0 mm 9 W/m2
06:24 45.1 °F /  7.3 °C 40.9 °F /  4.9 °C 29.96 in /  1014.4 hPa NW 1.0 mph /  1.6 km/h 6.0 mph /  9.7 km/h 85 % 0.00 in /  0 mm 12 W/m2
06:29 45.3 °F /  7.4 °C 41.1 °F /  5.1 °C 29.96 in /  1014.4 hPa Calm   4.0 mph /  6.4 km/h 85 % 0.00 in /  0 mm 12 W/m2
06:34 45.3 °F /  7.4 °C 41.1 °F /  5.1 °C 29.96 in /  1014.4 hPa Calm     85 % 0.00 in /  0 mm 9 W/m2
06:39 45.3 °F /  7.4 °C 41.1 °F /  5.1 °C 29.96 in /  1014.4 hPa Calm     85 % 0.00 in /  0 mm 11 W/m2
06:44 45.5 °F /  7.5 °C 41.3 °F /  5.2 °C 29.96 in /  1014.4 hPa Calm     85 % 0.00 in /  0 mm 5 W/m2
06:49 45.5 °F /  7.5 °C 41.3 °F /  5.2 °C 29.96 in /  1014.4 hPa Calm     85 % 0.00 in /  0 mm 5 W/m2
06:54 45.7 °F /  7.6 °C 41.4 °F /  5.2 °C 29.96 in /  1014.4 hPa Calm     85 % 0.00 in /  0 mm 7 W/m2
06:59 45.7 °F /  7.6 °C 41.4 °F /  5.2 °C 29.96 in /  1014.4 hPa Calm   1.0 mph /  1.6 km/h 85 % 0.00 in /  0 mm 5 W/m2
07:04 45.9 °F /  7.7 °C 41.3 °F /  5.2 °C 29.96 in /  1014.4 hPa Calm   1.0 mph /  1.6 km/h 84 % 0.00 in /  0 mm 11 W/m2
07:09 45.9 °F /  7.7 °C 41.3 °F /  5.2 °C 29.96 in /  1014.4 hPa Calm   1.0 mph /  1.6 km/h 84 % 0.00 in /  0 mm 16 W/m2
07:14 46.0 °F /  7.8 °C 41.8 °F /  5.4 °C 29.96 in /  1014.4 hPa Calm     85 % 0.00 in /  0 mm 16 W/m2
07:19 46.2 °F /  7.9 °C 42.0 °F /  5.6 °C 29.96 in /  1014.4 hPa Calm   2.0 mph /  3.2 km/h 85 % 0.00 in /  0 mm 21 W/m2
07:24 46.4 °F /  8 °C 42.1 °F /  5.6 °C 29.96 in /  1014.4 hPa WNW 1.0 mph /  1.6 km/h 7.0 mph /  11.3 km/h 85 % 0.00 in /  0 mm 25 W/m2
07:29 46.6 °F /  8.1 °C 42.3 °F /  5.7 °C 29.96 in /  1014.4 hPa SW 4.0 mph /  6.4 km/h 9.0 mph /  14.5 km/h 85 % 0.00 in /  0 mm 21 W/m2
07:34 46.8 °F /  8.2 °C 42.5 °F /  5.8 °C 29.95 in /  1014.1 hPa SSW 5.0 mph /  8 km/h 9.0 mph /  14.5 km/h 85 % 0.00 in /  0 mm 30 W/m2
07:39 46.8 °F /  8.2 °C 42.5 °F /  5.8 °C 29.95 in /  1014.1 hPa SW 5.0 mph /  8 km/h 9.0 mph /  14.5 km/h 85 % 0.00 in /  0 mm 35 W/m2
07:44 46.9 °F /  8.3 °C 42.7 °F /  5.9 °C 29.95 in /  1014.1 hPa SW 6.0 mph /  9.7 km/h 11.0 mph /  17.7 km/h 85 % 0.00 in /  0 mm 39 W/m2
07:49 46.9 °F /  8.3 °C 42.4 °F /  5.8 °C 29.95 in /  1014.1 hPa SW 7.0 mph /  11.3 km/h 11.0 mph /  17.7 km/h 84 % 0.00 in /  0 mm 23 W/m2
07:54 46.9 °F /  8.3 °C 42.4 °F /  5.8 °C 29.95 in /  1014.1 hPa WSW 6.0 mph /  9.7 km/h 9.0 mph /  14.5 km/h 84 % 0.00 in /  0 mm 54 W/m2
07:59 47.1 °F /  8.4 °C 42.8 °F /  6 °C 29.96 in /  1014.4 hPa WSW 5.0 mph /  8 km/h 8.0 mph /  12.9 km/h 85 % 0.00 in /  0 mm 77 W/m2
08:04 47.1 °F /  8.4 °C 42.5 °F /  5.8 °C 29.95 in /  1014.1 hPa SW 5.0 mph /  8 km/h 9.0 mph /  14.5 km/h 84 % 0.00 in /  0 mm 70 W/m2
08:09 47.3 °F /  8.5 °C 42.7 °F /  5.9 °C 29.95 in /  1014.1 hPa SW 6.0 mph /  9.7 km/h 9.0 mph /  14.5 km/h 84 % 0.00 in /  0 mm 58 W/m2
08:14 47.5 °F /  8.6 °C 42.9 °F /  6.1 °C 29.95 in /  1014.1 hPa SW 5.0 mph /  8 km/h 9.0 mph /  14.5 km/h 84 % 0.00 in /  0 mm 107 W/m2
08:20 47.7 °F /  8.7 °C 43.1 °F /  6.2 °C 29.95 in /  1014.1 hPa SW 6.0 mph /  9.7 km/h 9.0 mph /  14.5 km/h 84 % 0.00 in /  0 mm 69 W/m2
08:25 47.7 °F /  8.7 °C 43.1 °F /  6.2 °C 29.95 in /  1014.1 hPa SW 5.0 mph /  8 km/h 8.0 mph /  12.9 km/h 84 % 0.00 in /  0 mm 53 W/m2
08:30 47.8 °F /  8.8 °C 43.2 °F /  6.2 °C 29.95 in /  1014.1 hPa SW 6.0 mph /  9.7 km/h 9.0 mph /  14.5 km/h 84 % 0.00 in /  0 mm 46 W/m2
08:35 47.8 °F /  8.8 °C 43.2 °F /  6.2 °C 29.95 in /  1014.1 hPa SW 7.0 mph /  11.3 km/h 11.0 mph /  17.7 km/h 84 % 0.00 in /  0 mm 62 W/m2
08:40 48.0 °F /  8.9 °C 43.4 °F /  6.3 °C 29.95 in /  1014.1 hPa SW 7.0 mph /  11.3 km/h 11.0 mph /  17.7 km/h 84 % 0.00 in /  0 mm 83 W/m2
08:45 48.0 °F /  8.9 °C 43.4 °F /  6.3 °C 29.95 in /  1014.1 hPa SW 7.0 mph /  11.3 km/h 11.0 mph /  17.7 km/h 84 % 0.00 in /  0 mm 74 W/m2
08:50 48.0 °F /  8.9 °C 43.4 °F /  6.3 °C 29.95 in /  1014.1 hPa SW 7.0 mph /  11.3 km/h 11.0 mph /  17.7 km/h 84 % 0.00 in /  0 mm 105 W/m2
08:55 48.4 °F /  9.1 °C 43.8 °F /  6.6 °C 29.94 in /  1013.8 hPa SW 6.0 mph /  9.7 km/h 10.0 mph /  16.1 km/h 84 % 0.00 in /  0 mm 97 W/m2
09:00 48.4 °F /  9.1 °C 43.8 °F /  6.6 °C 29.94 in /  1013.8 hPa SW 7.0 mph /  11.3 km/h 11.0 mph /  17.7 km/h 84 % 0.00 in /  0 mm 121 W/m2
09:05 48.6 °F /  9.2 °C 43.9 °F /  6.6 °C 29.94 in /  1013.8 hPa SW 7.0 mph /  11.3 km/h 11.0 mph /  17.7 km/h 84 % 0.00 in /  0 mm 93 W/m2
09:10 48.7 °F /  9.3 °C 44.1 °F /  6.7 °C 29.94 in /  1013.8 hPa SW 7.0 mph /  11.3 km/h 11.0 mph /  17.7 km/h 84 % 0.00 in /  0 mm 127 W/m2
09:15 48.7 °F /  9.3 °C 44.4 °F /  6.9 °C 29.94 in /  1013.8 hPa SW 7.0 mph /  11.3 km/h 11.0 mph /  17.7 km/h 85 % 0.00 in /  0 mm 135 W/m2
09:20 48.9 °F /  9.4 °C 44.9 °F /  7.2 °C 29.94 in /  1013.8 hPa SW 7.0 mph /  11.3 km/h 11.0 mph /  17.7 km/h 86 % 0.00 in /  0 mm 125 W/m2
09:25 48.9 °F /  9.4 °C 44.9 °F /  7.2 °C 29.94 in /  1013.8 hPa SW 6.0 mph /  9.7 km/h 10.0 mph /  16.1 km/h 86 % 0.00 in /  0 mm 155 W/m2
09:30 49.1 °F /  9.5 °C 44.8 °F /  7.1 °C 29.94 in /  1013.8 hPa SW 6.0 mph /  9.7 km/h 11.0 mph /  17.7 km/h 85 % 0.00 in /  0 mm 174 W/m2
09:35 49.3 °F /  9.6 °C 45.0 °F /  7.2 °C 29.94 in /  1013.8 hPa SW 7.0 mph /  11.3 km/h 12.0 mph /  19.3 km/h 85 % 0.00 in /  0 mm 229 W/m2
09:40 49.5 °F /  9.7 °C 45.1 °F /  7.3 °C 29.93 in /  1013.4 hPa SW 7.0 mph /  11.3 km/h 12.0 mph /  19.3 km/h 85 % 0.00 in /  0 mm 250 W/m2
09:45 49.6 °F /  9.8 °C 45.3 °F /  7.4 °C 29.93 in /  1013.4 hPa SW 8.0 mph /  12.9 km/h 12.0 mph /  19.3 km/h 85 % 0.00 in /  0 mm 225 W/m2
09:46 49.6 °F /  9.8 °C 45.3 °F /  7.4 °C 29.93 in /  1013.4 hPa SW 8.0 mph /  12.9 km/h 12.0 mph /  19.3 km/h 85 % 0.00 in /  0 mm 220 W/m2
09:51 49.6 °F /  9.8 °C 45.3 °F /  7.4 °C 29.93 in /  1013.4 hPa SSW 8.0 mph /  12.9 km/h 14.0 mph /  22.5 km/h 85 % 0.00 in /  0 mm 214 W/m2
09:56 49.6 °F /  9.8 °C 45.3 °F /  7.4 °C 29.93 in /  1013.4 hPa SW 9.0 mph /  14.5 km/h 14.0 mph /  22.5 km/h 85 % 0.00 in /  0 mm 216 W/m2
10:01 49.8 °F /  9.9 °C 45.5 °F /  7.5 °C 29.93 in /  1013.4 hPa SW 9.0 mph /  14.5 km/h 14.0 mph /  22.5 km/h 85 % 0.00 in /  0 mm 220 W/m2
10:06 50.2 °F /  10.1 °C 45.8 °F /  7.7 °C 29.93 in /  1013.4 hPa SW 8.0 mph /  12.9 km/h 13.0 mph /  20.9 km/h 85 % 0.00 in /  0 mm 165 W/m2
10:11 50.4 °F /  10.2 °C 45.7 °F /  7.6 °C 29.93 in /  1013.4 hPa SW 7.0 mph /  11.3 km/h 11.0 mph /  17.7 km/h 84 % 0.00 in /  0 mm 155 W/m2
10:16 50.4 °F /  10.2 °C 45.7 °F /  7.6 °C 29.93 in /  1013.4 hPa SW 7.0 mph /  11.3 km/h 11.0 mph /  17.7 km/h 84 % 0.00 in /  0 mm 134 W/m2
10:21 50.4 °F /  10.2 °C 45.7 °F /  7.6 °C 29.93 in /  1013.4 hPa SW 7.0 mph /  11.3 km/h 11.0 mph /  17.7 km/h 84 % 0.00 in /  0 mm 142 W/m2
10:26 50.5 °F /  10.3 °C 45.9 °F /  7.7 °C 29.93 in /  1013.4 hPa SW 8.0 mph /  12.9 km/h 12.0 mph /  19.3 km/h 84 % 0.00 in /  0 mm 186 W/m2
10:31 50.7 °F /  10.4 °C 46.4 °F /  8 °C 29.93 in /  1013.4 hPa SW 7.0 mph /  11.3 km/h 12.0 mph /  19.3 km/h 85 % 0.00 in /  0 mm 236 W/m2
10:36 51.1 °F /  10.6 °C 46.4 °F /  8 °C 29.92 in /  1013.1 hPa SW 7.0 mph /  11.3 km/h 13.0 mph /  20.9 km/h 84 % 0.00 in /  0 mm 313 W/m2
10:41 51.4 °F /  10.8 °C 46.8 °F /  8.2 °C 29.92 in /  1013.1 hPa WSW 8.0 mph /  12.9 km/h 13.0 mph /  20.9 km/h 84 % 0.00 in /  0 mm 236 W/m2
10:46 51.6 °F /  10.9 °C 46.6 °F /  8.1 °C 29.92 in /  1013.1 hPa WSW 9.0 mph /  14.5 km/h 14.0 mph /  22.5 km/h 83 % 0.00 in /  0 mm 188 W/m2
10:51 51.6 °F /  10.9 °C 46.6 °F /  8.1 °C 29.92 in /  1013.1 hPa SW 9.0 mph /  14.5 km/h 14.0 mph /  22.5 km/h 83 % 0.00 in /  0 mm 120 W/m2
10:56 51.6 °F /  10.9 °C 46.9 °F /  8.3 °C 29.92 in /  1013.1 hPa SW 8.0 mph /  12.9 km/h 14.0 mph /  22.5 km/h 84 % 0.00 in /  0 mm 105 W/m2
11:01 51.6 °F /  10.9 °C 46.9 °F /  8.3 °C 29.93 in /  1013.4 hPa WSW 8.0 mph /  12.9 km/h 13.0 mph /  20.9 km/h 84 % 0.00 in /  0 mm 146 W/m2
11:06 51.6 °F /  10.9 °C 46.9 °F /  8.3 °C 29.93 in /  1013.4 hPa WSW 8.0 mph /  12.9 km/h 13.0 mph /  20.9 km/h 84 % 0.00 in /  0 mm 125 W/m2
11:11 52.0 °F /  11.1 °C 47.3 °F /  8.5 °C 29.92 in /  1013.1 hPa WSW 8.0 mph /  12.9 km/h 13.0 mph /  20.9 km/h 84 % 0.00 in /  0 mm 127 W/m2
11:16 52.2 °F /  11.2 °C 47.2 °F /  8.4 °C 29.92 in /  1013.1 hPa West 8.0 mph /  12.9 km/h 15.0 mph /  24.1 km/h 83 % 0.00 in /  0 mm 116 W/m2
11:21 52.3 °F /  11.3 °C 47.3 °F /  8.5 °C 29.92 in /  1013.1 hPa West 9.0 mph /  14.5 km/h 15.0 mph /  24.1 km/h 83 % 0.00 in /  0 mm 128 W/m2
11:26 52.5 °F /  11.4 °C 47.2 °F /  8.4 °C 29.92 in /  1013.1 hPa WSW 9.0 mph /  14.5 km/h 16.0 mph /  25.7 km/h 82 % 0.00 in /  0 mm 158 W/m2
11:31 52.5 °F /  11.4 °C 47.2 °F /  8.4 °C 29.92 in /  1013.1 hPa WSW 11.0 mph /  17.7 km/h 20.0 mph /  32.2 km/h 82 % 0.00 in /  0 mm 127 W/m2
11:36 52.5 °F /  11.4 °C 47.2 °F /  8.4 °C 29.92 in /  1013.1 hPa West 10.0 mph /  16.1 km/h 20.0 mph /  32.2 km/h 82 % 0.00 in /  0 mm 127 W/m2
11:41 52.9 °F /  11.6 °C 47.9 °F /  8.8 °C 29.92 in /  1013.1 hPa West 9.0 mph /  14.5 km/h 14.0 mph /  22.5 km/h 83 % 0.00 in /  0 mm 139 W/m2
11:46 52.9 °F /  11.6 °C 47.9 °F /  8.8 °C 29.92 in /  1013.1 hPa West 8.0 mph /  12.9 km/h 14.0 mph /  22.5 km/h 83 % 0.00 in /  0 mm 183 W/m2
11:51 53.1 °F /  11.7 °C 47.7 °F /  8.7 °C 29.92 in /  1013.1 hPa West 9.0 mph /  14.5 km/h 19.0 mph /  30.6 km/h 82 % 0.00 in /  0 mm 197 W/m2
11:56 53.1 °F /  11.7 °C 48.0 °F /  8.9 °C 29.92 in /  1013.1 hPa West 10.0 mph /  16.1 km/h 19.0 mph /  30.6 km/h 83 % 0.00 in /  0 mm 243 W/m2
12:01 53.2 °F /  11.8 °C 48.2 °F /  9 °C 29.92 in /  1013.1 hPa West 9.0 mph /  14.5 km/h 16.0 mph /  25.7 km/h 83 % 0.00 in /  0 mm 357 W/m2
12:07 53.6 °F /  12 °C 48.6 °F /  9.2 °C 29.92 in /  1013.1 hPa West 9.0 mph /  14.5 km/h 14.0 mph /  22.5 km/h 83 % 0.00 in /  0 mm 332 W/m2
12:12 54.0 °F /  12.2 °C 48.9 °F /  9.4 °C 29.91 in /  1012.8 hPa West 9.0 mph /  14.5 km/h 16.0 mph /  25.7 km/h 83 % 0.00 in /  0 mm 397 W/m2
12:17 54.3 °F /  12.4 °C 48.6 °F /  9.2 °C 29.91 in /  1012.8 hPa West 11.0 mph /  17.7 km/h 21.0 mph /  33.8 km/h 81 % 0.00 in /  0 mm 325 W/m2
12:20 54.5 °F /  12.5 °C 48.5 °F /  9.2 °C 29.92 in /  1013.1 hPa West 14.0 mph /  22.5 km/h 22.0 mph /  35.4 km/h 80 % 0.00 in /  0 mm 264 W/m2
12:25 54.7 °F /  12.6 °C 48.6 °F /  9.2 °C 29.91 in /  1012.8 hPa West 13.0 mph /  20.9 km/h 22.0 mph /  35.4 km/h 80 % 0.00 in /  0 mm 297 W/m2
12:30 54.9 °F /  12.7 °C 48.8 °F /  9.3 °C 29.91 in /  1012.8 hPa West 11.0 mph /  17.7 km/h 19.0 mph /  30.6 km/h 80 % 0.00 in /  0 mm 274 W/m2
12:35 55.0 °F /  12.8 °C 48.6 °F /  9.2 °C 29.91 in /  1012.8 hPa West 11.0 mph /  17.7 km/h 23.0 mph /  37 km/h 79 % 0.00 in /  0 mm 308 W/m2
12:40 55.0 °F /  12.8 °C 48.6 °F /  9.2 °C 29.91 in /  1012.8 hPa West 12.0 mph /  19.3 km/h 23.0 mph /  37 km/h 79 % 0.00 in /  0 mm 318 W/m2
12:45 55.0 °F /  12.8 °C 49.0 °F /  9.4 °C 29.91 in /  1012.8 hPa West 12.0 mph /  19.3 km/h 23.0 mph /  37 km/h 80 % 0.00 in /  0 mm 320 W/m2
12:51 55.4 °F /  13 °C 49.0 °F /  9.4 °C 29.91 in /  1012.8 hPa West 12.0 mph /  19.3 km/h 22.0 mph /  35.4 km/h 79 % 0.00 in /  0 mm 415 W/m2
12:55 55.8 °F /  13.2 °C 49.3 °F /  9.6 °C 29.91 in /  1012.8 hPa West 13.0 mph /  20.9 km/h 25.0 mph /  40.2 km/h 79 % 0.00 in /  0 mm 399 W/m2
13:01 55.8 °F /  13.2 °C 49.0 °F /  9.4 °C 29.91 in /  1012.8 hPa West 13.0 mph /  20.9 km/h 25.0 mph /  40.2 km/h 78 % 0.00 in /  0 mm 302 W/m2
13:06 55.6 °F /  13.1 °C 48.5 °F /  9.2 °C 29.91 in /  1012.8 hPa West 14.0 mph /  22.5 km/h 23.0 mph /  37 km/h 77 % 0.00 in /  0 mm 364 W/m2
13:11 55.6 °F /  13.1 °C 48.8 °F /  9.3 °C 29.91 in /  1012.8 hPa West 14.0 mph /  22.5 km/h 23.0 mph /  37 km/h 78 % 0.00 in /  0 mm 496 W/m2
13:16 55.8 °F /  13.2 °C 48.7 °F /  9.3 °C 29.91 in /  1012.8 hPa West 14.0 mph /  22.5 km/h 24.0 mph /  38.6 km/h 77 % 0.00 in /  0 mm 315 W/m2
13:21 55.6 °F /  13.1 °C 48.1 °F /  8.9 °C 29.91 in /  1012.8 hPa West 15.0 mph /  24.1 km/h 24.0 mph /  38.6 km/h 76 % 0.00 in /  0 mm 206 W/m2
13:26 55.4 °F /  13 °C 48.3 °F /  9.1 °C 29.91 in /  1012.8 hPa West 14.0 mph /  22.5 km/h 24.0 mph /  38.6 km/h 77 % 0.00 in /  0 mm 186 W/m2
13:31 55.2 °F /  12.9 °C 48.1 °F /  8.9 °C 29.91 in /  1012.8 hPa West 14.0 mph /  22.5 km/h 24.0 mph /  38.6 km/h 77 % 0.00 in /  0 mm 232 W/m2
13:36 55.2 °F /  12.9 °C 47.8 °F /  8.8 °C 29.91 in /  1012.8 hPa West 15.0 mph /  24.1 km/h 24.0 mph /  38.6 km/h 76 % 0.00 in /  0 mm 285 W/m2
13:41 55.2 °F /  12.9 °C 47.8 °F /  8.8 °C 29.91 in /  1012.8 hPa West 15.0 mph /  24.1 km/h 26.0 mph /  41.8 km/h 76 % 0.00 in /  0 mm 285 W/m2
13:46 55.2 °F /  12.9 °C 47.8 °F /  8.8 °C 29.91 in /  1012.8 hPa West 14.0 mph /  22.5 km/h 26.0 mph /  41.8 km/h 76 % 0.00 in /  0 mm 253 W/m2
13:51 55.2 °F /  12.9 °C 47.8 °F /  8.8 °C 29.91 in /  1012.8 hPa West 14.0 mph /  22.5 km/h 23.0 mph /  37 km/h 76 % 0.00 in /  0 mm 267 W/m2
14:01 55.2 °F /  12.9 °C 47.8 °F /  8.8 °C 29.91 in /  1012.8 hPa West 16.0 mph /  25.7 km/h 26.0 mph /  41.8 km/h 76 % 0.00 in /  0 mm 410 W/m2
14:06 55.4 °F /  13 °C 48.3 °F /  9.1 °C 29.91 in /  1012.8 hPa West 15.0 mph /  24.1 km/h 26.0 mph /  41.8 km/h 77 % 0.00 in /  0 mm 457 W/m2
14:11 55.4 °F /  13 °C 48.3 °F /  9.1 °C 29.91 in /  1012.8 hPa West 15.0 mph /  24.1 km/h 25.0 mph /  40.2 km/h 77 % 0.00 in /  0 mm 301 W/m2
14:15 55.4 °F /  13 °C 48.3 °F /  9.1 °C 29.91 in /  1012.8 hPa West 14.0 mph /  22.5 km/h 25.0 mph /  40.2 km/h 77 % 0.00 in /  0 mm 202 W/m2
14:20 55.2 °F /  12.9 °C 48.1 °F /  8.9 °C 29.90 in /  1012.4 hPa West 12.0 mph /  19.3 km/h 20.0 mph /  32.2 km/h 77 % 0.00 in /  0 mm 137 W/m2
14:25 55.2 °F /  12.9 °C 48.5 °F /  9.2 °C 29.90 in /  1012.4 hPa West 11.0 mph /  17.7 km/h 20.0 mph /  32.2 km/h 78 % 0.00 in /  0 mm 162 W/m2
14:30 55.0 °F /  12.8 °C 48.3 °F /  9.1 °C 29.90 in /  1012.4 hPa West 11.0 mph /  17.7 km/h 21.0 mph /  33.8 km/h 78 % 0.00 in /  0 mm 406 W/m2
14:35 55.0 °F /  12.8 °C 48.3 °F /  9.1 °C 29.90 in /  1012.4 hPa West 12.0 mph /  19.3 km/h 21.0 mph /  33.8 km/h 78 % 0.00 in /  0 mm 424 W/m2
14:40 55.8 °F /  13.2 °C 48.3 °F /  9.1 °C 29.90 in /  1012.4 hPa West 11.0 mph /  17.7 km/h 21.0 mph /  33.8 km/h 76 % 0.00 in /  0 mm 717 W/m2
14:45 56.5 °F /  13.6 °C 47.9 °F /  8.8 °C 29.89 in /  1012.1 hPa West 13.0 mph /  20.9 km/h 24.0 mph /  38.6 km/h 73 % 0.00 in /  0 mm 501 W/m2
14:50 56.8 °F /  13.8 °C 47.5 °F /  8.6 °C 29.90 in /  1012.4 hPa West 15.0 mph /  24.1 km/h 24.0 mph /  38.6 km/h 71 % 0.00 in /  0 mm 536 W/m2
14:55 57.0 °F /  13.9 °C 46.9 °F /  8.3 °C 29.89 in /  1012.1 hPa West 16.0 mph /  25.7 km/h 27.0 mph /  43.5 km/h 69 % 0.00 in /  0 mm 341 W/m2
15:00 56.8 °F /  13.8 °C 46.8 °F /  8.2 °C 29.89 in /  1012.1 hPa West 17.0 mph /  27.4 km/h 29.0 mph /  46.7 km/h 69 % 0.00 in /  0 mm 329 W/m2
15:05 56.7 °F /  13.7 °C 46.6 °F /  8.1 °C 29.89 in /  1012.1 hPa West 16.0 mph /  25.7 km/h 29.0 mph /  46.7 km/h 69 % 0.00 in /  0 mm 304 W/m2
15:10 56.8 °F /  13.8 °C 47.2 °F /  8.4 °C 29.89 in /  1012.1 hPa West 15.0 mph /  24.1 km/h 27.0 mph /  43.5 km/h 70 % 0.00 in /  0 mm 380 W/m2
15:15 56.8 °F /  13.8 °C 47.2 °F /  8.4 °C 29.89 in /  1012.1 hPa West 13.0 mph /  20.9 km/h 23.0 mph /  37 km/h 70 % 0.00 in /  0 mm 330 W/m2
15:20 57.0 °F /  13.9 °C 47.3 °F /  8.5 °C 29.89 in /  1012.1 hPa West 12.0 mph /  19.3 km/h 23.0 mph /  37 km/h 70 % 0.00 in /  0 mm 350 W/m2
15:25 57.4 °F /  14.1 °C 47.3 °F /  8.5 °C 29.89 in /  1012.1 hPa West 12.0 mph /  19.3 km/h 20.0 mph /  32.2 km/h 69 % 0.00 in /  0 mm 325 W/m2
15:30 57.0 °F /  13.9 °C 46.6 °F /  8.1 °C 29.88 in /  1011.7 hPa West 14.0 mph /  22.5 km/h 25.0 mph /  40.2 km/h 68 % 0.00 in /  0 mm 297 W/m2
15:35 56.7 °F /  13.7 °C 45.4 °F /  7.4 °C 29.89 in /  1012.1 hPa West 16.0 mph /  25.7 km/h 31.0 mph /  49.9 km/h 66 % 0.00 in /  0 mm 294 W/m2
15:40 56.5 °F /  13.6 °C 46.0 °F /  7.8 °C 29.89 in /  1012.1 hPa West 17.0 mph /  27.4 km/h 31.0 mph /  49.9 km/h 68 % 0.00 in /  0 mm 237 W/m2
15:45 56.1 °F /  13.4 °C 46.1 °F /  7.8 °C 29.89 in /  1012.1 hPa West 15.0 mph /  24.1 km/h 27.0 mph /  43.5 km/h 69 % 0.00 in /  0 mm 248 W/m2
15:50 56.1 °F /  13.4 °C 46.1 °F /  7.8 °C 29.88 in /  1011.7 hPa West 14.0 mph /  22.5 km/h 25.0 mph /  40.2 km/h 69 % 0.00 in /  0 mm 341 W/m2
15:55 56.3 °F /  13.5 °C 46.3 °F /  7.9 °C 29.88 in /  1011.7 hPa West 13.0 mph /  20.9 km/h 25.0 mph /  40.2 km/h 69 % 0.00 in /  0 mm 320 W/m2
16:00 56.5 °F /  13.6 °C 46.4 °F /  8 °C 29.88 in /  1011.7 hPa West 12.0 mph /  19.3 km/h 21.0 mph /  33.8 km/h 69 % 0.00 in /  0 mm 290 W/m2
16:05 56.1 °F /  13.4 °C 44.9 °F /  7.2 °C 29.88 in /  1011.7 hPa West 16.0 mph /  25.7 km/h 28.0 mph /  45.1 km/h 66 % 0.00 in /  0 mm 279 W/m2
16:10 55.9 °F /  13.3 °C 45.1 °F /  7.3 °C 29.88 in /  1011.7 hPa West 18.0 mph /  29 km/h 28.0 mph /  45.1 km/h 67 % 0.00 in /  0 mm 246 W/m2
16:15 55.9 °F /  13.3 °C 45.5 °F /  7.5 °C 29.88 in /  1011.7 hPa WNW 17.0 mph /  27.4 km/h 25.0 mph /  40.2 km/h 68 % 0.00 in /  0 mm 220 W/m2
16:20 55.8 °F /  13.2 °C 45.4 °F /  7.4 °C 29.88 in /  1011.7 hPa WNW 16.0 mph /  25.7 km/h 25.0 mph /  40.2 km/h 68 % 0.00 in /  0 mm 197 W/m2
16:25 55.6 °F /  13.1 °C 45.6 °F /  7.6 °C 29.88 in /  1011.7 hPa WNW 16.0 mph /  25.7 km/h 27.0 mph /  43.5 km/h 69 % 0.00 in /  0 mm 202 W/m2
16:30 55.4 °F /  13 °C 45.4 °F /  7.4 °C 29.88 in /  1011.7 hPa West 17.0 mph /  27.4 km/h 27.0 mph /  43.5 km/h 69 % 0.00 in /  0 mm 206 W/m2
16:35 55.2 °F /  12.9 °C 45.6 °F /  7.6 °C 29.88 in /  1011.7 hPa West 16.0 mph /  25.7 km/h 26.0 mph /  41.8 km/h 70 % 0.00 in /  0 mm 223 W/m2
16:40 55.2 °F /  12.9 °C 46.0 °F /  7.8 °C 29.88 in /  1011.7 hPa West 15.0 mph /  24.1 km/h 26.0 mph /  41.8 km/h 71 % 0.00 in /  0 mm 230 W/m2
16:45 55.4 °F /  13 °C 46.5 °F /  8.1 °C 29.88 in /  1011.7 hPa West 13.0 mph /  20.9 km/h 26.0 mph /  41.8 km/h 72 % 0.00 in /  0 mm 193 W/m2
16:50 55.4 °F /  13 °C 46.2 °F /  7.9 °C 29.88 in /  1011.7 hPa West 12.0 mph /  19.3 km/h 26.0 mph /  41.8 km/h 71 % 0.00 in /  0 mm 144 W/m2
16:56 55.2 °F /  12.9 °C 46.3 °F /  7.9 °C 29.88 in /  1011.7 hPa WNW 13.0 mph /  20.9 km/h 26.0 mph /  41.8 km/h 72 % 0.00 in /  0 mm 109 W/m2
17:01 55.0 °F /  12.8 °C 46.5 °F /  8.1 °C 29.88 in /  1011.7 hPa WNW 13.0 mph /  20.9 km/h 23.0 mph /  37 km/h 73 % 0.00 in /  0 mm 144 W/m2
17:06 54.9 °F /  12.7 °C 46.7 °F /  8.2 °C 29.88 in /  1011.7 hPa WNW 12.0 mph /  19.3 km/h 21.0 mph /  33.8 km/h 74 % 0.00 in /  0 mm 230 W/m2
17:11 54.7 °F /  12.6 °C 46.6 °F /  8.1 °C 29.88 in /  1011.7 hPa WNW 11.0 mph /  17.7 km/h 21.0 mph /  33.8 km/h 74 % 0.00 in /  0 mm 214 W/m2
17:16 54.7 °F /  12.6 °C 46.2 °F /  7.9 °C 29.88 in /  1011.7 hPa WNW 12.0 mph /  19.3 km/h 20.0 mph /  32.2 km/h 73 % 0.00 in /  0 mm 206 W/m2
17:21 54.5 °F /  12.5 °C 46.0 °F /  7.8 °C 29.88 in /  1011.7 hPa WNW 13.0 mph /  20.9 km/h 20.0 mph /  32.2 km/h 73 % 0.00 in /  0 mm 209 W/m2
17:26 54.5 °F /  12.5 °C 46.4 °F /  8 °C 29.87 in /  1011.4 hPa WNW 11.0 mph /  17.7 km/h 18.0 mph /  29 km/h 74 % 0.00 in /  0 mm 204 W/m2
17:31 54.5 °F /  12.5 °C 47.1 °F /  8.4 °C 29.87 in /  1011.4 hPa WNW 10.0 mph /  16.1 km/h 18.0 mph /  29 km/h 76 % 0.00 in /  0 mm 179 W/m2
17:36 54.5 °F /  12.5 °C 47.1 °F /  8.4 °C 29.87 in /  1011.4 hPa West 10.0 mph /  16.1 km/h 18.0 mph /  29 km/h 76 % 0.00 in /  0 mm 213 W/m2
17:41 54.3 °F /  12.4 °C 46.9 °F /  8.3 °C 29.88 in /  1011.7 hPa WNW 11.0 mph /  17.7 km/h 21.0 mph /  33.8 km/h 76 % 0.00 in /  0 mm 181 W/m2
17:46 54.1 °F /  12.3 °C 47.1 °F /  8.4 °C 29.87 in /  1011.4 hPa West 11.0 mph /  17.7 km/h 21.0 mph /  33.8 km/h 77 % 0.00 in /  0 mm 148 W/m2
17:51 54.1 °F /  12.3 °C 47.1 °F /  8.4 °C 29.87 in /  1011.4 hPa WNW 11.0 mph /  17.7 km/h 19.0 mph /  30.6 km/h 77 % 0.00 in /  0 mm 137 W/m2
17:56 54.0 °F /  12.2 °C 47.6 °F /  8.7 °C 29.88 in /  1011.7 hPa WNW 10.0 mph /  16.1 km/h 18.0 mph /  29 km/h 79 % 0.00 in /  0 mm 125 W/m2
18:01 53.6 °F /  12 °C 47.2 °F /  8.4 °C 29.87 in /  1011.4 hPa WNW 11.0 mph /  17.7 km/h 19.0 mph /  30.6 km/h 79 % 0.00 in /  0 mm 109 W/m2
18:06 53.4 °F /  11.9 °C 47.7 °F /  8.7 °C 29.87 in /  1011.4 hPa WNW 10.0 mph /  16.1 km/h 19.0 mph /  30.6 km/h 81 % 0.00 in /  0 mm 127 W/m2
18:11 53.2 °F /  11.8 °C 48.2 °F /  9 °C 29.87 in /  1011.4 hPa WNW 7.0 mph /  11.3 km/h 15.0 mph /  24.1 km/h 83 % 0.00 in /  0 mm 111 W/m2
18:16 52.9 °F /  11.6 °C 47.9 °F /  8.8 °C 29.87 in /  1011.4 hPa WNW 7.0 mph /  11.3 km/h 12.0 mph /  19.3 km/h 83 % 0.00 in /  0 mm 113 W/m2
18:21 52.9 °F /  11.6 °C 47.9 °F /  8.8 °C 29.87 in /  1011.4 hPa West 7.0 mph /  11.3 km/h 16.0 mph /  25.7 km/h 83 % 0.00 in /  0 mm 107 W/m2
18:26 52.9 °F /  11.6 °C 47.2 °F /  8.4 °C 29.87 in /  1011.4 hPa West 8.0 mph /  12.9 km/h 16.0 mph /  25.7 km/h 81 % 0.00 in /  0 mm 90 W/m2
18:31 52.9 °F /  11.6 °C 46.5 °F /  8.1 °C 29.87 in /  1011.4 hPa West 10.0 mph /  16.1 km/h 19.0 mph /  30.6 km/h 79 % 0.00 in /  0 mm 72 W/m2
18:36 52.9 °F /  11.6 °C 46.5 °F /  8.1 °C 29.87 in /  1011.4 hPa West 12.0 mph /  19.3 km/h 22.0 mph /  35.4 km/h 79 % 0.00 in /  0 mm 49 W/m2
18:41 52.7 °F /  11.5 °C 46.7 °F /  8.2 °C 29.87 in /  1011.4 hPa West 11.0 mph /  17.7 km/h 22.0 mph /  35.4 km/h 80 % 0.00 in /  0 mm 33 W/m2
18:46 52.5 °F /  11.4 °C 46.9 °F /  8.3 °C 29.87 in /  1011.4 hPa West 10.0 mph /  16.1 km/h 18.0 mph /  29 km/h 81 % 0.00 in /  0 mm 32 W/m2
18:51 52.2 °F /  11.2 °C 46.5 °F /  8.1 °C 29.86 in /  1011.1 hPa West 9.0 mph /  14.5 km/h 15.0 mph /  24.1 km/h 81 % 0.00 in /  0 mm 37 W/m2
18:56 52.0 °F /  11.1 °C 46.7 °F /  8.2 °C 29.86 in /  1011.1 hPa West 9.0 mph /  14.5 km/h 16.0 mph /  25.7 km/h 82 % 0.00 in /  0 mm 35 W/m2
19:01 51.6 °F /  10.9 °C 46.6 °F /  8.1 °C 29.86 in /  1011.1 hPa West 9.0 mph /  14.5 km/h 18.0 mph /  29 km/h 83 % 0.00 in /  0 mm 35 W/m2
19:06 51.6 °F /  10.9 °C 46.6 °F /  8.1 °C 29.86 in /  1011.1 hPa West 9.0 mph /  14.5 km/h 18.0 mph /  29 km/h 83 % 0.00 in /  0 mm 26 W/m2
19:11 51.4 °F /  10.8 °C 46.4 °F /  8 °C 29.86 in /  1011.1 hPa West 9.0 mph /  14.5 km/h 16.0 mph /  25.7 km/h 83 % 0.00 in /  0 mm 21 W/m2
19:16 51.4 °F /  10.8 °C 46.4 °F /  8 °C 29.86 in /  1011.1 hPa West 9.0 mph /  14.5 km/h 16.0 mph /  25.7 km/h 83 % 0.00 in /  0 mm 18 W/m2
19:21 51.4 °F /  10.8 °C 46.4 °F /  8 °C 29.86 in /  1011.1 hPa West 8.0 mph /  12.9 km/h 18.0 mph /  29 km/h 83 % 0.00 in /  0 mm 14 W/m2
19:26 51.3 °F /  10.7 °C 46.6 °F /  8.1 °C 29.86 in /  1011.1 hPa West 9.0 mph /  14.5 km/h 18.0 mph /  29 km/h 84 % 0.00 in /  0 mm 11 W/m2
19:31 51.1 °F /  10.6 °C 46.4 °F /  8 °C 29.86 in /  1011.1 hPa West 9.0 mph /  14.5 km/h 16.0 mph /  25.7 km/h 84 % 0.00 in /  0 mm 11 W/m2
19:36 50.9 °F /  10.5 °C 46.6 °F /  8.1 °C 29.86 in /  1011.1 hPa West 10.0 mph /  16.1 km/h 16.0 mph /  25.7 km/h 85 % 0.00 in /  0 mm 11 W/m2
19:41 50.7 °F /  10.4 °C 46.4 °F /  8 °C 29.86 in /  1011.1 hPa West 9.0 mph /  14.5 km/h 16.0 mph /  25.7 km/h 85 % 0.00 in /  0 mm 11 W/m2
19:46 50.7 °F /  10.4 °C 46.7 °F /  8.2 °C 29.86 in /  1011.1 hPa West 7.0 mph /  11.3 km/h 16.0 mph /  25.7 km/h 86 % 0.00 in /  0 mm 14 W/m2
19:51 50.5 °F /  10.3 °C 46.2 °F /  7.9 °C 29.86 in /  1011.1 hPa West 7.0 mph /  11.3 km/h 13.0 mph /  20.9 km/h 85 % 0.00 in /  0 mm 12 W/m2
19:56 50.5 °F /  10.3 °C 46.2 °F /  7.9 °C 29.86 in /  1011.1 hPa West 9.0 mph /  14.5 km/h 18.0 mph /  29 km/h 85 % 0.00 in /  0 mm 11 W/m2
20:01 50.5 °F /  10.3 °C 46.2 °F /  7.9 °C 29.86 in /  1011.1 hPa West 9.0 mph /  14.5 km/h 18.0 mph /  29 km/h 85 % 0.00 in /  0 mm 7 W/m2
20:06 50.5 °F /  10.3 °C 46.2 °F /  7.9 °C 29.87 in /  1011.4 hPa West 8.0 mph /  12.9 km/h 19.0 mph /  30.6 km/h 85 % 0.00 in /  0 mm 0 W/m2
20:11 50.5 °F /  10.3 °C 46.2 °F /  7.9 °C 29.87 in /  1011.4 hPa West 9.0 mph /  14.5 km/h 19.0 mph /  30.6 km/h 85 % 0.00 in /  0 mm 0 W/m2
20:17 50.5 °F /  10.3 °C 46.2 °F /  7.9 °C 29.87 in /  1011.4 hPa West 9.0 mph /  14.5 km/h 16.0 mph /  25.7 km/h 85 % 0.00 in /  0 mm 0 W/m2
20:27 50.5 °F /  10.3 °C 46.2 °F /  7.9 °C 29.87 in /  1011.4 hPa WNW 9.0 mph /  14.5 km/h 20.0 mph /  32.2 km/h 85 % 0.00 in /  0 mm 0 W/m2
20:32 50.5 °F /  10.3 °C 45.9 °F /  7.7 °C 29.88 in /  1011.7 hPa WNW 11.0 mph /  17.7 km/h 21.0 mph /  33.8 km/h 84 % 0.00 in /  0 mm 0 W/m2
20:37 50.5 °F /  10.3 °C 45.6 °F /  7.6 °C 29.88 in /  1011.7 hPa WNW 11.0 mph /  17.7 km/h 21.0 mph /  33.8 km/h 83 % 0.00 in /  0 mm 0 W/m2
20:42 50.4 °F /  10.2 °C 45.4 °F /  7.4 °C 29.88 in /  1011.7 hPa WNW 9.0 mph /  14.5 km/h 20.0 mph /  32.2 km/h 83 % 0.00 in /  0 mm 0 W/m2
20:47 50.2 °F /  10.1 °C 45.2 °F /  7.3 °C 29.88 in /  1011.7 hPa WNW 10.0 mph /  16.1 km/h 19.0 mph /  30.6 km/h 83 % 0.00 in /  0 mm 0 W/m2
20:52 50.0 °F /  10 °C 45.0 °F /  7.2 °C 29.88 in /  1011.7 hPa WNW 12.0 mph /  19.3 km/h 19.0 mph /  30.6 km/h 83 % 0.00 in /  0 mm 0 W/m2
20:57 49.8 °F /  9.9 °C 44.9 °F /  7.2 °C 29.88 in /  1011.7 hPa WNW 10.0 mph /  16.1 km/h 19.0 mph /  30.6 km/h 83 % 0.00 in /  0 mm 0 W/m2
21:02 49.6 °F /  9.8 °C 44.7 °F /  7.1 °C 29.88 in /  1011.7 hPa WNW 10.0 mph /  16.1 km/h 19.0 mph /  30.6 km/h 83 % 0.00 in /  0 mm 0 W/m2
21:07 49.5 °F /  9.7 °C 44.5 °F /  6.9 °C 29.88 in /  1011.7 hPa WNW 11.0 mph /  17.7 km/h 21.0 mph /  33.8 km/h 83 % 0.00 in /  0 mm 0 W/m2
21:12 49.3 °F /  9.6 °C 44.3 °F /  6.8 °C 29.89 in /  1012.1 hPa WNW 12.0 mph /  19.3 km/h 21.0 mph /  33.8 km/h 83 % 0.00 in /  0 mm 0 W/m2
21:17 49.3 °F /  9.6 °C 44.3 °F /  6.8 °C 29.89 in /  1012.1 hPa WNW 11.0 mph /  17.7 km/h 19.0 mph /  30.6 km/h 83 % 0.00 in /  0 mm 0 W/m2
21:23 48.9 °F /  9.4 °C 44.0 °F /  6.7 °C 29.89 in /  1012.1 hPa WNW 10.0 mph /  16.1 km/h 19.0 mph /  30.6 km/h 83 % 0.00 in /  0 mm 0 W/m2
21:28 48.9 °F /  9.4 °C 44.0 °F /  6.7 °C 29.89 in /  1012.1 hPa WNW 9.0 mph /  14.5 km/h 15.0 mph /  24.1 km/h 83 % 0.00 in /  0 mm 0 W/m2
21:33 48.7 °F /  9.3 °C 44.1 °F /  6.7 °C 29.89 in /  1012.1 hPa WNW 9.0 mph /  14.5 km/h 16.0 mph /  25.7 km/h 84 % 0.00 in /  0 mm 0 W/m2
21:38 48.6 °F /  9.2 °C 43.9 °F /  6.6 °C 29.89 in /  1012.1 hPa WNW 9.0 mph /  14.5 km/h 19.0 mph /  30.6 km/h 84 % 0.00 in /  0 mm 0 W/m2
21:43 48.6 °F /  9.2 °C 43.9 °F /  6.6 °C 29.89 in /  1012.1 hPa WNW 8.0 mph /  12.9 km/h 19.0 mph /  30.6 km/h 84 % 0.00 in /  0 mm 0 W/m2
21:48 48.6 °F /  9.2 °C 43.9 °F /  6.6 °C 29.89 in /  1012.1 hPa WNW 7.0 mph /  11.3 km/h 12.0 mph /  19.3 km/h 84 % 0.00 in /  0 mm 0 W/m2
21:53 48.6 °F /  9.2 °C 43.9 °F /  6.6 °C 29.89 in /  1012.1 hPa WNW 7.0 mph /  11.3 km/h 11.0 mph /  17.7 km/h 84 % 0.00 in /  0 mm 0 W/m2
21:58 48.6 °F /  9.2 °C 43.9 °F /  6.6 °C 29.90 in /  1012.4 hPa WNW 7.0 mph /  11.3 km/h 13.0 mph /  20.9 km/h 84 % 0.00 in /  0 mm 0 W/m2
22:03 48.6 °F /  9.2 °C 43.9 °F /  6.6 °C 29.89 in /  1012.1 hPa WNW 7.0 mph /  11.3 km/h 13.0 mph /  20.9 km/h 84 % 0.00 in /  0 mm 0 W/m2
22:08 48.4 °F /  9.1 °C 43.8 °F /  6.6 °C 29.89 in /  1012.1 hPa West 7.0 mph /  11.3 km/h 12.0 mph /  19.3 km/h 84 % 0.00 in /  0 mm 0 W/m2
22:13 48.2 °F /  9 °C 43.9 °F /  6.6 °C 29.89 in /  1012.1 hPa West 8.0 mph /  12.9 km/h 15.0 mph /  24.1 km/h 85 % 0.00 in /  0 mm 0 W/m2
22:18 48.2 °F /  9 °C 43.9 °F /  6.6 °C 29.89 in /  1012.1 hPa WNW 8.0 mph /  12.9 km/h 15.0 mph /  24.1 km/h 85 % 0.00 in /  0 mm 0 W/m2
22:28 48.4 °F /  9.1 °C 44.1 °F /  6.7 °C 29.89 in /  1012.1 hPa WNW 8.0 mph /  12.9 km/h 14.0 mph /  22.5 km/h 85 % 0.00 in /  0 mm 0 W/m2
22:33 48.4 °F /  9.1 °C 44.1 °F /  6.7 °C 29.90 in /  1012.4 hPa WNW 8.0 mph /  12.9 km/h 16.0 mph /  25.7 km/h 85 % 0.00 in /  0 mm 0 W/m2
22:38 48.4 °F /  9.1 °C 44.1 °F /  6.7 °C 29.90 in /  1012.4 hPa WNW 10.0 mph /  16.1 km/h 20.0 mph /  32.2 km/h 85 % 0.00 in /  0 mm 0 W/m2
22:43 48.4 °F /  9.1 °C 44.4 °F /  6.9 °C 29.90 in /  1012.4 hPa WNW 10.0 mph /  16.1 km/h 20.0 mph /  32.2 km/h 86 % 0.00 in /  0 mm 0 W/m2
22:48 48.4 °F /  9.1 °C 44.7 °F /  7.1 °C 29.90 in /  1012.4 hPa WNW 8.0 mph /  12.9 km/h 16.0 mph /  25.7 km/h 87 % 0.00 in /  0 mm 0 W/m2
22:53 48.2 °F /  9 °C 44.8 °F /  7.1 °C 29.90 in /  1012.4 hPa WNW 7.0 mph /  11.3 km/h 14.0 mph /  22.5 km/h 88 % 0.00 in /  0 mm 0 W/m2
22:58 48.0 °F /  8.9 °C 44.9 °F /  7.2 °C 29.90 in /  1012.4 hPa WNW 7.0 mph /  11.3 km/h 14.0 mph /  22.5 km/h 89 % 0.00 in /  0 mm 0 W/m2
23:03 47.8 °F /  8.8 °C 44.8 °F /  7.1 °C 29.90 in /  1012.4 hPa WNW 7.0 mph /  11.3 km/h 14.0 mph /  22.5 km/h 89 % 0.00 in /  0 mm 0 W/m2
23:08 47.7 °F /  8.7 °C 44.6 °F /  7 °C 29.91 in /  1012.8 hPa WNW 8.0 mph /  12.9 km/h 15.0 mph /  24.1 km/h 89 % 0.00 in /  0 mm 0 W/m2
23:13 47.7 °F /  8.7 °C 44.9 °F /  7.2 °C 29.90 in /  1012.4 hPa WNW 8.0 mph /  12.9 km/h 15.0 mph /  24.1 km/h 90 % 0.01 in /  0.25 mm 0 W/m2
23:18 47.5 °F /  8.6 °C 44.7 °F /  7.1 °C 29.90 in /  1012.4 hPa WNW 8.0 mph /  12.9 km/h 13.0 mph /  20.9 km/h 90 % 0.01 in /  0.25 mm 0 W/m2
23:23 47.3 °F /  8.5 °C 44.5 °F /  6.9 °C 29.91 in /  1012.8 hPa WNW 7.0 mph /  11.3 km/h 13.0 mph /  20.9 km/h 90 % 0.01 in /  0.25 mm 0 W/m2
23:28 47.3 °F /  8.5 °C 44.5 °F /  6.9 °C 29.90 in /  1012.4 hPa WNW 7.0 mph /  11.3 km/h 13.0 mph /  20.9 km/h 90 % 0.01 in /  0.25 mm 0 W/m2
23:33 47.1 °F /  8.4 °C 44.3 °F /  6.8 °C 29.90 in /  1012.4 hPa WNW 7.0 mph /  11.3 km/h 12.0 mph /  19.3 km/h 90 % 0.01 in /  0.25 mm 0 W/m2
23:38 47.1 °F /  8.4 °C 44.3 °F /  6.8 °C 29.90 in /  1012.4 hPa WNW 6.0 mph /  9.7 km/h 12.0 mph /  19.3 km/h 90 % 0.01 in /  0.25 mm 0 W/m2
23:43 46.9 °F /  8.3 °C 44.2 °F /  6.8 °C 29.90 in /  1012.4 hPa WNW 7.0 mph /  11.3 km/h 11.0 mph /  17.7 km/h 90 % 0.01 in /  0.25 mm 0 W/m2
23:48 46.8 °F /  8.2 °C 44.0 °F /  6.7 °C 29.90 in /  1012.4 hPa WNW 7.0 mph /  11.3 km/h 11.0 mph /  17.7 km/h 90 % 0.01 in /  0.25 mm 0 W/m2
23:53 46.8 °F /  8.2 °C 44.0 °F /  6.7 °C 29.90 in /  1012.4 hPa WNW 6.0 mph /  9.7 km/h 11.0 mph /  17.7 km/h 90 % 0.01 in /  0.25 mm 0 W/m2
23:58 46.6 °F /  8.1 °C 43.8 °F /  6.6 °C 29.91 in /  1012.8 hPa WNW 6.0 mph /  9.7 km/h 11.0 mph /  17.7 km/h 90 % 0.01 in /  0.25 mm 0 W/m2
Delerius-Weather
Compliments of Weather Underground - 2.25 mb

Data updates at regular intervals.